sensor_id;sensor_type;location;lat;lon;timestamp;temperature;humidity
20658;DHT22;10488;50.846;4.078;2023-04-29T00:00:53;11.70;99.90
20658;DHT22;10488;50.846;4.078;2023-04-29T00:03:18;11.50;99.90
20658;DHT22;10488;50.846;4.078;2023-04-29T00:05:44;11.50;99.90
20658;DHT22;10488;50.846;4.078;2023-04-29T00:08:10;11.30;99.90
20658;DHT22;10488;50.846;4.078;2023-04-29T00:10:36;11.30;99.90
20658;DHT22;10488;50.846;4.078;2023-04-29T00:13:02;11.30;99.90
20658;DHT22;10488;50.846;4.078;2023-04-29T00:15:28;11.40;99.90
20658;DHT22;10488;50.846;4.078;2023-04-29T00:17:53;11.50;99.90
20658;DHT22;10488;50.846;4.078;2023-04-29T00:20:20;11.40;99.90
20658;DHT22;10488;50.846;4.078;2023-04-29T00:22:46;11.20;99.90
20658;DHT22;10488;50.846;4.078;2023-04-29T00:25:11;11.30;99.90
20658;DHT22;10488;50.846;4.078;2023-04-29T00:27:37;11.00;99.90
20658;DHT22;10488;50.846;4.078;2023-04-29T00:30:06;11.10;99.90
20658;DHT22;10488;50.846;4.078;2023-04-29T00:32:32;11.10;99.90
20658;DHT22;10488;50.846;4.078;2023-04-29T00:34:58;11.10;99.90
20658;DHT22;10488;50.846;4.078;2023-04-29T00:37:24;11.20;99.90
20658;DHT22;10488;50.846;4.078;2023-04-29T00:39:49;11.10;99.90
20658;DHT22;10488;50.846;4.078;2023-04-29T00:42:15;11.20;99.90
20658;DHT22;10488;50.846;4.078;2023-04-29T00:44:41;11.00;99.90
20658;DHT22;10488;50.846;4.078;2023-04-29T00:47:06;11.10;99.90
20658;DHT22;10488;50.846;4.078;2023-04-29T00:49:37;11.20;99.90
20658;DHT22;10488;50.846;4.078;2023-04-29T00:52:03;11.00;99.90
20658;DHT22;10488;50.846;4.078;2023-04-29T00:54:29;10.80;99.90
20658;DHT22;10488;50.846;4.078;2023-04-29T00:56:55;10.90;99.90
20658;DHT22;10488;50.846;4.078;2023-04-29T00:59:21;11.00;99.90
20658;DHT22;10488;50.846;4.078;2023-04-29T01:01:48;10.70;99.90
20658;DHT22;10488;50.846;4.078;2023-04-29T01:04:14;10.90;99.90
20658;DHT22;10488;50.846;4.078;2023-04-29T01:12:19;11.20;99.90
20658;DHT22;10488;50.846;4.078;2023-04-29T01:17:47;11.30;99.90
20658;DHT22;10488;50.846;4.078;2023-04-29T01:20:15;11.10;99.90
20658;DHT22;10488;50.846;4.078;2023-04-29T01:22:41;10.90;99.90
20658;DHT22;10488;50.846;4.078;2023-04-29T01:25:07;10.80;99.90
20658;DHT22;10488;50.846;4.078;2023-04-29T01:41:37;10.70;99.90
20658;DHT22;10488;50.846;4.078;2023-04-29T01:44:07;10.60;99.90
20658;DHT22;10488;50.846;4.078;2023-04-29T01:46:37;10.70;99.90
20658;DHT22;10488;50.846;4.078;2023-04-29T01:49:03;10.80;99.90
20658;DHT22;10488;50.846;4.078;2023-04-29T01:51:28;10.70;99.90
20658;DHT22;10488;50.846;4.078;2023-04-29T01:53:54;10.60;99.90
20658;DHT22;10488;50.846;4.078;2023-04-29T01:56:20;10.70;99.90
20658;DHT22;10488;50.846;4.078;2023-04-29T01:58:45;10.60;99.90
20658;DHT22;10488;50.846;4.078;2023-04-29T02:01:11;10.40;99.90
20658;DHT22;10488;50.846;4.078;2023-04-29T02:03:37;10.50;99.90
20658;DHT22;10488;50.846;4.078;2023-04-29T02:06:03;10.50;99.90
20658;DHT22;10488;50.846;4.078;2023-04-29T02:08:31;10.50;99.90
20658;DHT22;10488;50.846;4.078;2023-04-29T02:10:58;10.60;99.90
20658;DHT22;10488;50.846;4.078;2023-04-29T02:13:25;10.80;99.90
20658;DHT22;10488;50.846;4.078;2023-04-29T02:15:51;10.60;99.90
20658;DHT22;10488;50.846;4.078;2023-04-29T02:18:17;10.70;99.90
20658;DHT22;10488;50.846;4.078;2023-04-29T02:20:42;10.40;99.90
20658;DHT22;10488;50.846;4.078;2023-04-29T02:23:08;10.50;99.90
20658;DHT22;10488;50.846;4.078;2023-04-29T02:25:34;10.60;99.90
20658;DHT22;10488;50.846;4.078;2023-04-29T02:27:59;10.60;99.90
20658;DHT22;10488;50.846;4.078;2023-04-29T02:30:25;10.60;99.90
20658;DHT22;10488;50.846;4.078;2023-04-29T02:32:51;10.70;99.90
20658;DHT22;10488;50.846;4.078;2023-04-29T02:35:17;10.60;99.90
20658;DHT22;10488;50.846;4.078;2023-04-29T02:37:43;10.50;99.90
20658;DHT22;10488;50.846;4.078;2023-04-29T02:40:10;10.50;99.90
20658;DHT22;10488;50.846;4.078;2023-04-29T02:42:35;10.20;99.90
20658;DHT22;10488;50.846;4.078;2023-04-29T02:45:02;10.30;99.90
20658;DHT22;10488;50.846;4.078;2023-04-29T02:47:28;10.30;99.90
20658;DHT22;10488;50.846;4.078;2023-04-29T02:49:53;10.20;99.90
20658;DHT22;10488;50.846;4.078;2023-04-29T02:52:19;10.40;99.90
20658;DHT22;10488;50.846;4.078;2023-04-29T02:54:45;10.40;99.90
20658;DHT22;10488;50.846;4.078;2023-04-29T02:57:10;10.40;99.90
20658;DHT22;10488;50.846;4.078;2023-04-29T02:59:36;10.40;99.90
20658;DHT22;10488;50.846;4.078;2023-04-29T03:02:02;10.30;99.90
20658;DHT22;10488;50.846;4.078;2023-04-29T03:04:28;10.30;99.90
20658;DHT22;10488;50.846;4.078;2023-04-29T03:06:54;10.30;99.90
20658;DHT22;10488;50.846;4.078;2023-04-29T03:09:23;10.40;99.90
20658;DHT22;10488;50.846;4.078;2023-04-29T03:11:49;10.40;99.90
20658;DHT22;10488;50.846;4.078;2023-04-29T03:14:14;10.50;99.90
20658;DHT22;10488;50.846;4.078;2023-04-29T03:16:40;10.50;99.90
20658;DHT22;10488;50.846;4.078;2023-04-29T03:19:07;10.30;99.90
20658;DHT22;10488;50.846;4.078;2023-04-29T03:21:33;10.30;99.90
20658;DHT22;10488;50.846;4.078;2023-04-29T03:23:59;10.40;99.90
20658;DHT22;10488;50.846;4.078;2023-04-29T03:26:24;10.40;99.90
20658;DHT22;10488;50.846;4.078;2023-04-29T03:28:50;10.20;99.90
20658;DHT22;10488;50.846;4.078;2023-04-29T03:31:16;10.20;99.90
20658;DHT22;10488;50.846;4.078;2023-04-29T03:33:42;10.30;99.90
20658;DHT22;10488;50.846;4.078;2023-04-29T03:36:08;10.20;99.90
20658;DHT22;10488;50.846;4.078;2023-04-29T03:38:34;10.40;99.90
20658;DHT22;10488;50.846;4.078;2023-04-29T03:41:00;10.50;99.90
20658;DHT22;10488;50.846;4.078;2023-04-29T03:43:26;10.30;99.90
20658;DHT22;10488;50.846;4.078;2023-04-29T03:45:52;10.30;99.90
20658;DHT22;10488;50.846;4.078;2023-04-29T03:48:18;10.30;99.90
20658;DHT22;10488;50.846;4.078;2023-04-29T03:50:46;10.40;99.90
20658;DHT22;10488;50.846;4.078;2023-04-29T03:53:12;10.50;99.90
20658;DHT22;10488;50.846;4.078;2023-04-29T03:55:38;10.70;99.90
20658;DHT22;10488;50.846;4.078;2023-04-29T03:58:04;10.80;99.90
20658;DHT22;10488;50.846;4.078;2023-04-29T04:00:30;10.80;99.90
20658;DHT22;10488;50.846;4.078;2023-04-29T04:02:59;10.60;99.90
20658;DHT22;10488;50.846;4.078;2023-04-29T04:05:25;10.50;99.90
20658;DHT22;10488;50.846;4.078;2023-04-29T04:07:51;10.70;99.90
20658;DHT22;10488;50.846;4.078;2023-04-29T04:10:17;10.70;99.90
20658;DHT22;10488;50.846;4.078;2023-04-29T04:12:43;10.40;99.90
20658;DHT22;10488;50.846;4.078;2023-04-29T04:15:10;10.30;99.90
20658;DHT22;10488;50.846;4.078;2023-04-29T04:17:35;10.30;99.90
20658;DHT22;10488;50.846;4.078;2023-04-29T04:20:01;10.50;99.90
20658;DHT22;10488;50.846;4.078;2023-04-29T04:22:27;10.70;99.90
20658;DHT22;10488;50.846;4.078;2023-04-29T04:24:55;10.60;99.90
20658;DHT22;10488;50.846;4.078;2023-04-29T04:27:21;10.80;99.90
20658;DHT22;10488;50.846;4.078;2023-04-29T04:29:47;10.80;99.90
20658;DHT22;10488;50.846;4.078;2023-04-29T04:32:13;10.70;99.90
20658;DHT22;10488;50.846;4.078;2023-04-29T04:34:38;10.60;99.90
20658;DHT22;10488;50.846;4.078;2023-04-29T04:37:04;10.60;99.90
20658;DHT22;10488;50.846;4.078;2023-04-29T04:39:31;10.70;99.90
20658;DHT22;10488;50.846;4.078;2023-04-29T04:41:57;10.70;99.90
20658;DHT22;10488;50.846;4.078;2023-04-29T04:44:22;10.20;99.90
20658;DHT22;10488;50.846;4.078;2023-04-29T04:46:49;10.30;99.90
20658;DHT22;10488;50.846;4.078;2023-04-29T04:49:15;10.30;99.90
20658;DHT22;10488;50.846;4.078;2023-04-29T04:51:44;10.40;99.90
20658;DHT22;10488;50.846;4.078;2023-04-29T04:54:10;10.30;99.90
20658;DHT22;10488;50.846;4.078;2023-04-29T04:56:36;10.50;99.90
20658;DHT22;10488;50.846;4.078;2023-04-29T04:59:02;10.50;99.90
20658;DHT22;10488;50.846;4.078;2023-04-29T05:01:29;10.40;99.90
20658;DHT22;10488;50.846;4.078;2023-04-29T05:03:54;10.50;99.90
20658;DHT22;10488;50.846;4.078;2023-04-29T05:06:20;10.50;99.90
20658;DHT22;10488;50.846;4.078;2023-04-29T05:08:46;10.20;99.90
20658;DHT22;10488;50.846;4.078;2023-04-29T05:11:19;10.20;99.90
20658;DHT22;10488;50.846;4.078;2023-04-29T05:13:45;10.40;99.90
20658;DHT22;10488;50.846;4.078;2023-04-29T05:16:11;10.40;99.90
20658;DHT22;10488;50.846;4.078;2023-04-29T05:18:36;10.40;99.90
20658;DHT22;10488;50.846;4.078;2023-04-29T05:21:02;10.30;99.90
20658;DHT22;10488;50.846;4.078;2023-04-29T05:23:28;10.30;99.90
20658;DHT22;10488;50.846;4.078;2023-04-29T05:25:54;10.20;99.90
20658;DHT22;10488;50.846;4.078;2023-04-29T05:28:20;10.10;99.90
20658;DHT22;10488;50.846;4.078;2023-04-29T05:30:46;10.10;99.90
20658;DHT22;10488;50.846;4.078;2023-04-29T05:33:14;10.10;99.90
20658;DHT22;10488;50.846;4.078;2023-04-29T05:35:40;10.40;99.90
20658;DHT22;10488;50.846;4.078;2023-04-29T05:38:06;10.40;99.90
20658;DHT22;10488;50.846;4.078;2023-04-29T05:40:32;10.40;99.90
20658;DHT22;10488;50.846;4.078;2023-04-29T05:42:57;10.30;99.90
20658;DHT22;10488;50.846;4.078;2023-04-29T05:45:25;10.20;99.90
20658;DHT22;10488;50.846;4.078;2023-04-29T05:47:53;10.30;99.90
20658;DHT22;10488;50.846;4.078;2023-04-29T05:50:19;10.40;99.90
20658;DHT22;10488;50.846;4.078;2023-04-29T05:52:45;10.40;99.90
20658;DHT22;10488;50.846;4.078;2023-04-29T05:55:11;10.50;99.90
20658;DHT22;10488;50.846;4.078;2023-04-29T05:57:36;10.40;99.90
20658;DHT22;10488;50.846;4.078;2023-04-29T06:00:02;10.30;99.90
20658;DHT22;10488;50.846;4.078;2023-04-29T06:02:28;10.20;99.90
20658;DHT22;10488;50.846;4.078;2023-04-29T06:04:54;10.40;99.90
20658;DHT22;10488;50.846;4.078;2023-04-29T06:07:20;10.50;99.90
20658;DHT22;10488;50.846;4.078;2023-04-29T06:09:46;10.50;99.90
20658;DHT22;10488;50.846;4.078;2023-04-29T06:12:11;10.30;99.90
20658;DHT22;10488;50.846;4.078;2023-04-29T06:14:37;10.10;99.90
20658;DHT22;10488;50.846;4.078;2023-04-29T06:17:03;9.90;99.90
20658;DHT22;10488;50.846;4.078;2023-04-29T06:19:29;9.80;99.90
20658;DHT22;10488;50.846;4.078;2023-04-29T06:21:54;9.80;99.90
20658;DHT22;10488;50.846;4.078;2023-04-29T06:24:20;9.60;99.90
20658;DHT22;10488;50.846;4.078;2023-04-29T06:26:46;9.70;99.90
20658;DHT22;10488;50.846;4.078;2023-04-29T06:29:11;10.00;99.90
20658;DHT22;10488;50.846;4.078;2023-04-29T06:31:37;10.00;99.90
20658;DHT22;10488;50.846;4.078;2023-04-29T06:34:03;10.30;99.90
20658;DHT22;10488;50.846;4.078;2023-04-29T06:36:28;10.30;99.90
20658;DHT22;10488;50.846;4.078;2023-04-29T06:38:54;10.10;99.90
20658;DHT22;10488;50.846;4.078;2023-04-29T06:41:20;10.20;99.90
20658;DHT22;10488;50.846;4.078;2023-04-29T06:43:45;10.10;99.90
20658;DHT22;10488;50.846;4.078;2023-04-29T06:46:11;10.20;99.90
20658;DHT22;10488;50.846;4.078;2023-04-29T06:48:37;10.10;99.90
20658;DHT22;10488;50.846;4.078;2023-04-29T06:51:03;10.20;99.90
20658;DHT22;10488;50.846;4.078;2023-04-29T06:53:29;10.00;99.90
20658;DHT22;10488;50.846;4.078;2023-04-29T06:55:54;10.20;99.90
20658;DHT22;10488;50.846;4.078;2023-04-29T06:58:20;10.20;99.90
20658;DHT22;10488;50.846;4.078;2023-04-29T07:00:47;10.10;99.90
20658;DHT22;10488;50.846;4.078;2023-04-29T07:03:14;10.20;99.90
20658;DHT22;10488;50.846;4.078;2023-04-29T07:05:40;10.30;99.90
20658;DHT22;10488;50.846;4.078;2023-04-29T07:08:07;10.10;99.90
20658;DHT22;10488;50.846;4.078;2023-04-29T07:10:34;10.10;99.90
20658;DHT22;10488;50.846;4.078;2023-04-29T07:13:00;10.30;99.90
20658;DHT22;10488;50.846;4.078;2023-04-29T07:15:27;10.40;99.90
20658;DHT22;10488;50.846;4.078;2023-04-29T07:17:52;10.60;99.90
20658;DHT22;10488;50.846;4.078;2023-04-29T07:20:18;10.60;99.90
20658;DHT22;10488;50.846;4.078;2023-04-29T07:22:44;10.60;99.90
20658;DHT22;10488;50.846;4.078;2023-04-29T07:25:10;10.50;99.90
20658;DHT22;10488;50.846;4.078;2023-04-29T07:27:36;10.50;99.90
20658;DHT22;10488;50.846;4.078;2023-04-29T07:30:03;10.60;99.90
20658;DHT22;10488;50.846;4.078;2023-04-29T07:32:28;10.70;99.90
20658;DHT22;10488;50.846;4.078;2023-04-29T07:34:56;10.70;99.90
20658;DHT22;10488;50.846;4.078;2023-04-29T07:37:22;10.60;99.90
20658;DHT22;10488;50.846;4.078;2023-04-29T07:39:48;10.90;99.90
20658;DHT22;10488;50.846;4.078;2023-04-29T07:42:13;10.90;99.90
20658;DHT22;10488;50.846;4.078;2023-04-29T07:44:39;11.20;99.90
20658;DHT22;10488;50.846;4.078;2023-04-29T07:47:05;11.30;99.90
20658;DHT22;10488;50.846;4.078;2023-04-29T07:49:31;11.40;99.90
20658;DHT22;10488;50.846;4.078;2023-04-29T07:51:57;11.60;99.90
20658;DHT22;10488;50.846;4.078;2023-04-29T07:54:22;11.60;99.90
20658;DHT22;10488;50.846;4.078;2023-04-29T07:56:48;11.50;99.90
20658;DHT22;10488;50.846;4.078;2023-04-29T07:59:14;11.80;99.90
20658;DHT22;10488;50.846;4.078;2023-04-29T08:01:40;11.70;99.90
20658;DHT22;10488;50.846;4.078;2023-04-29T08:04:06;11.70;99.90
20658;DHT22;10488;50.846;4.078;2023-04-29T08:06:33;11.50;99.90
20658;DHT22;10488;50.846;4.078;2023-04-29T08:08:58;11.40;99.90
20658;DHT22;10488;50.846;4.078;2023-04-29T08:11:24;11.50;99.90
20658;DHT22;10488;50.846;4.078;2023-04-29T08:13:52;11.60;99.90
20658;DHT22;10488;50.846;4.078;2023-04-29T08:16:18;11.70;99.90
20658;DHT22;10488;50.846;4.078;2023-04-29T08:18:43;11.70;99.90
20658;DHT22;10488;50.846;4.078;2023-04-29T08:21:09;11.80;99.90
20658;DHT22;10488;50.846;4.078;2023-04-29T08:23:38;12.10;99.90
20658;DHT22;10488;50.846;4.078;2023-04-29T08:26:04;11.70;99.90
20658;DHT22;10488;50.846;4.078;2023-04-29T08:28:30;11.70;99.90
20658;DHT22;10488;50.846;4.078;2023-04-29T08:30:56;12.00;99.90
20658;DHT22;10488;50.846;4.078;2023-04-29T08:33:22;11.80;99.90
20658;DHT22;10488;50.846;4.078;2023-04-29T08:35:48;11.60;99.90
20658;DHT22;10488;50.846;4.078;2023-04-29T08:38:14;12.30;99.90
20658;DHT22;10488;50.846;4.078;2023-04-29T08:40:44;12.10;99.90
20658;DHT22;10488;50.846;4.078;2023-04-29T08:43:13;11.80;99.90
20658;DHT22;10488;50.846;4.078;2023-04-29T08:45:41;11.90;99.90
20658;DHT22;10488;50.846;4.078;2023-04-29T08:48:08;12.20;99.90
20658;DHT22;10488;50.846;4.078;2023-04-29T08:50:38;12.80;99.90
20658;DHT22;10488;50.846;4.078;2023-04-29T08:53:09;13.50;99.90
20658;DHT22;10488;50.846;4.078;2023-04-29T08:55:38;13.70;99.90
20658;DHT22;10488;50.846;4.078;2023-04-29T08:58:06;13.80;99.90
20658;DHT22;10488;50.846;4.078;2023-04-29T09:00:33;14.40;99.90
20658;DHT22;10488;50.846;4.078;2023-04-29T09:03:00;14.80;99.90
20658;DHT22;10488;50.846;4.078;2023-04-29T09:05:27;14.60;99.90
20658;DHT22;10488;50.846;4.078;2023-04-29T09:07:56;14.00;99.90
20658;DHT22;10488;50.846;4.078;2023-04-29T09:10:24;14.00;99.90
20658;DHT22;10488;50.846;4.078;2023-04-29T09:12:50;13.50;99.90
20658;DHT22;10488;50.846;4.078;2023-04-29T09:15:16;13.10;99.90
20658;DHT22;10488;50.846;4.078;2023-04-29T09:17:47;12.90;99.90
20658;DHT22;10488;50.846;4.078;2023-04-29T09:22:48;13.70;99.90
20658;DHT22;10488;50.846;4.078;2023-04-29T09:25:14;13.50;99.90
20658;DHT22;10488;50.846;4.078;2023-04-29T09:27:40;13.80;99.90
20658;DHT22;10488;50.846;4.078;2023-04-29T09:30:06;14.00;99.90
20658;DHT22;10488;50.846;4.078;2023-04-29T09:32:32;14.20;99.90
20658;DHT22;10488;50.846;4.078;2023-04-29T09:34:58;14.10;99.90
20658;DHT22;10488;50.846;4.078;2023-04-29T09:37:25;14.00;99.90
20658;DHT22;10488;50.846;4.078;2023-04-29T09:39:52;13.30;99.90
20658;DHT22;10488;50.846;4.078;2023-04-29T09:42:18;13.60;99.90
20658;DHT22;10488;50.846;4.078;2023-04-29T09:44:44;13.70;99.90
20658;DHT22;10488;50.846;4.078;2023-04-29T09:47:10;14.00;99.90
20658;DHT22;10488;50.846;4.078;2023-04-29T09:49:41;14.30;99.90
20658;DHT22;10488;50.846;4.078;2023-04-29T09:52:12;14.10;99.90
20658;DHT22;10488;50.846;4.078;2023-04-29T09:54:40;14.50;99.90
20658;DHT22;10488;50.846;4.078;2023-04-29T09:57:07;14.60;99.90
20658;DHT22;10488;50.846;4.078;2023-04-29T09:59:37;14.30;99.90
20658;DHT22;10488;50.846;4.078;2023-04-29T10:02:15;14.40;99.90
20658;DHT22;10488;50.846;4.078;2023-04-29T10:04:44;14.50;99.90
20658;DHT22;10488;50.846;4.078;2023-04-29T10:07:15;13.90;99.90
20658;DHT22;10488;50.846;4.078;2023-04-29T10:09:44;13.90;99.90
20658;DHT22;10488;50.846;4.078;2023-04-29T10:12:15;14.40;99.90
20658;DHT22;10488;50.846;4.078;2023-04-29T10:14:47;15.10;99.90
20658;DHT22;10488;50.846;4.078;2023-04-29T10:17:19;15.60;99.90
20658;DHT22;10488;50.846;4.078;2023-04-29T10:19:52;15.60;99.90
20658;DHT22;10488;50.846;4.078;2023-04-29T10:22:32;16.00;99.90
20658;DHT22;10488;50.846;4.078;2023-04-29T10:25:00;16.20;99.90
20658;DHT22;10488;50.846;4.078;2023-04-29T10:27:30;15.60;99.90
20658;DHT22;10488;50.846;4.078;2023-04-29T10:29:57;14.90;99.90
20658;DHT22;10488;50.846;4.078;2023-04-29T10:32:25;15.00;99.90
20658;DHT22;10488;50.846;4.078;2023-04-29T10:34:54;15.30;99.90
20658;DHT22;10488;50.846;4.078;2023-04-29T10:37:21;15.60;99.90
20658;DHT22;10488;50.846;4.078;2023-04-29T10:42:45;15.40;99.90
20658;DHT22;10488;50.846;4.078;2023-04-29T10:45:17;14.90;99.90
20658;DHT22;10488;50.846;4.078;2023-04-29T10:53:17;15.50;99.90
20658;DHT22;10488;50.846;4.078;2023-04-29T10:55:47;15.90;99.90
20658;DHT22;10488;50.846;4.078;2023-04-29T11:01:00;16.10;99.90
20658;DHT22;10488;50.846;4.078;2023-04-29T11:06:22;14.90;99.90
20658;DHT22;10488;50.846;4.078;2023-04-29T11:09:18;14.80;99.90
20658;DHT22;10488;50.846;4.078;2023-04-29T11:12:07;14.20;99.90
20658;DHT22;10488;50.846;4.078;2023-04-29T11:14:33;13.70;99.90
20658;DHT22;10488;50.846;4.078;2023-04-29T11:17:09;14.00;99.90
20658;DHT22;10488;50.846;4.078;2023-04-29T11:19:44;14.40;99.90
20658;DHT22;10488;50.846;4.078;2023-04-29T11:22:23;14.50;99.90
20658;DHT22;10488;50.846;4.078;2023-04-29T11:24:57;14.50;99.90
20658;DHT22;10488;50.846;4.078;2023-04-29T11:27:29;14.40;99.90
20658;DHT22;10488;50.846;4.078;2023-04-29T11:29:56;14.00;99.90
20658;DHT22;10488;50.846;4.078;2023-04-29T11:32:39;13.90;99.90
20658;DHT22;10488;50.846;4.078;2023-04-29T11:35:14;14.00;99.90
20658;DHT22;10488;50.846;4.078;2023-04-29T11:37:41;14.30;99.90
20658;DHT22;10488;50.846;4.078;2023-04-29T11:40:07;14.70;99.90
20658;DHT22;10488;50.846;4.078;2023-04-29T11:42:34;14.80;99.90
20658;DHT22;10488;50.846;4.078;2023-04-29T11:45:01;15.10;99.90
20658;DHT22;10488;50.846;4.078;2023-04-29T11:47:28;15.20;99.90
20658;DHT22;10488;50.846;4.078;2023-04-29T11:50:04;15.40;99.90
20658;DHT22;10488;50.846;4.078;2023-04-29T11:52:31;15.90;99.90
20658;DHT22;10488;50.846;4.078;2023-04-29T11:54:57;16.20;99.90
20658;DHT22;10488;50.846;4.078;2023-04-29T11:57:24;16.20;99.90
20658;DHT22;10488;50.846;4.078;2023-04-29T11:59:51;17.00;99.90
20658;DHT22;10488;50.846;4.078;2023-04-29T12:02:21;17.20;99.90
20658;DHT22;10488;50.846;4.078;2023-04-29T12:04:46;17.10;99.90
20658;DHT22;10488;50.846;4.078;2023-04-29T12:07:16;16.10;99.90
20658;DHT22;10488;50.846;4.078;2023-04-29T12:09:45;15.80;99.90
20658;DHT22;10488;50.846;4.078;2023-04-29T12:12:13;15.70;99.90
20658;DHT22;10488;50.846;4.078;2023-04-29T12:14:40;15.80;99.90
20658;DHT22;10488;50.846;4.078;2023-04-29T12:17:07;16.10;99.90
20658;DHT22;10488;50.846;4.078;2023-04-29T12:19:34;16.60;99.90
20658;DHT22;10488;50.846;4.078;2023-04-29T12:22:03;16.00;99.90
20658;DHT22;10488;50.846;4.078;2023-04-29T12:24:35;16.00;99.90
20658;DHT22;10488;50.846;4.078;2023-04-29T12:27:01;16.30;99.90
20658;DHT22;10488;50.846;4.078;2023-04-29T12:29:27;16.80;99.90
20658;DHT22;10488;50.846;4.078;2023-04-29T12:31:54;16.50;99.90
20658;DHT22;10488;50.846;4.078;2023-04-29T12:34:31;16.40;99.90
20658;DHT22;10488;50.846;4.078;2023-04-29T12:37:00;17.10;99.90
20658;DHT22;10488;50.846;4.078;2023-04-29T12:39:27;17.20;99.90
20658;DHT22;10488;50.846;4.078;2023-04-29T12:41:59;16.80;99.90
20658;DHT22;10488;50.846;4.078;2023-04-29T12:44:34;16.90;99.90
20658;DHT22;10488;50.846;4.078;2023-04-29T12:47:07;17.30;99.90
20658;DHT22;10488;50.846;4.078;2023-04-29T12:49:34;17.30;99.90
20658;DHT22;10488;50.846;4.078;2023-04-29T12:52:00;16.80;99.90
20658;DHT22;10488;50.846;4.078;2023-04-29T12:54:26;16.80;99.90
20658;DHT22;10488;50.846;4.078;2023-04-29T12:56:52;16.40;99.90
20658;DHT22;10488;50.846;4.078;2023-04-29T12:59:18;16.90;99.90
20658;DHT22;10488;50.846;4.078;2023-04-29T13:01:43;17.00;99.90
20658;DHT22;10488;50.846;4.078;2023-04-29T13:04:09;17.10;99.90
20658;DHT22;10488;50.846;4.078;2023-04-29T13:06:36;16.90;99.90
20658;DHT22;10488;50.846;4.078;2023-04-29T13:09:07;16.90;99.90
20658;DHT22;10488;50.846;4.078;2023-04-29T13:11:39;16.70;99.90
20658;DHT22;10488;50.846;4.078;2023-04-29T13:14:05;16.70;99.90
20658;DHT22;10488;50.846;4.078;2023-04-29T13:16:34;16.60;99.90
20658;DHT22;10488;50.846;4.078;2023-04-29T13:19:00;16.20;99.90
20658;DHT22;10488;50.846;4.078;2023-04-29T13:21:26;16.00;99.90
20658;DHT22;10488;50.846;4.078;2023-04-29T13:23:55;16.50;99.90
20658;DHT22;10488;50.846;4.078;2023-04-29T13:26:21;16.80;99.90
20658;DHT22;10488;50.846;4.078;2023-04-29T13:28:48;17.40;99.90
20658;DHT22;10488;50.846;4.078;2023-04-29T13:31:13;17.30;99.90
20658;DHT22;10488;50.846;4.078;2023-04-29T13:33:39;17.40;99.90
20658;DHT22;10488;50.846;4.078;2023-04-29T13:36:05;17.40;99.90
20658;DHT22;10488;50.846;4.078;2023-04-29T13:38:31;17.40;99.90
20658;DHT22;10488;50.846;4.078;2023-04-29T13:40:57;17.20;99.90
20658;DHT22;10488;50.846;4.078;2023-04-29T13:43:22;16.80;99.90
20658;DHT22;10488;50.846;4.078;2023-04-29T13:45:48;16.80;99.90
20658;DHT22;10488;50.846;4.078;2023-04-29T13:48:14;17.10;99.90
20658;DHT22;10488;50.846;4.078;2023-04-29T13:50:39;17.60;99.90
20658;DHT22;10488;50.846;4.078;2023-04-29T13:53:06;17.70;99.90
20658;DHT22;10488;50.846;4.078;2023-04-29T13:55:32;18.00;99.90
20658;DHT22;10488;50.846;4.078;2023-04-29T13:58:01;17.60;99.90
20658;DHT22;10488;50.846;4.078;2023-04-29T14:00:27;17.40;99.90
20658;DHT22;10488;50.846;4.078;2023-04-29T14:02:54;17.40;99.90
20658;DHT22;10488;50.846;4.078;2023-04-29T14:05:19;16.70;99.90
20658;DHT22;10488;50.846;4.078;2023-04-29T14:07:45;16.50;99.90
20658;DHT22;10488;50.846;4.078;2023-04-29T14:10:11;17.20;99.90
20658;DHT22;10488;50.846;4.078;2023-04-29T14:12:36;17.60;99.90
20658;DHT22;10488;50.846;4.078;2023-04-29T14:15:02;17.10;99.90
20658;DHT22;10488;50.846;4.078;2023-04-29T14:17:28;17.10;99.90
20658;DHT22;10488;50.846;4.078;2023-04-29T14:19:54;17.00;99.90
20658;DHT22;10488;50.846;4.078;2023-04-29T14:22:20;16.30;99.90
20658;DHT22;10488;50.846;4.078;2023-04-29T14:24:45;16.20;99.90
20658;DHT22;10488;50.846;4.078;2023-04-29T14:27:11;16.80;99.90
20658;DHT22;10488;50.846;4.078;2023-04-29T14:29:37;17.00;99.90
20658;DHT22;10488;50.846;4.078;2023-04-29T14:32:03;16.50;99.90
20658;DHT22;10488;50.846;4.078;2023-04-29T14:34:29;16.60;99.90
20658;DHT22;10488;50.846;4.078;2023-04-29T14:36:54;16.40;99.90
20658;DHT22;10488;50.846;4.078;2023-04-29T14:39:23;16.60;99.90
20658;DHT22;10488;50.846;4.078;2023-04-29T14:41:50;16.50;99.90
20658;DHT22;10488;50.846;4.078;2023-04-29T14:44:15;16.40;99.90
20658;DHT22;10488;50.846;4.078;2023-04-29T14:46:41;16.90;99.90
20658;DHT22;10488;50.846;4.078;2023-04-29T14:49:07;16.60;99.90
20658;DHT22;10488;50.846;4.078;2023-04-29T14:51:33;16.50;99.90
20658;DHT22;10488;50.846;4.078;2023-04-29T14:53:58;16.50;99.90
20658;DHT22;10488;50.846;4.078;2023-04-29T14:56:24;16.60;99.90
20658;DHT22;10488;50.846;4.078;2023-04-29T14:58:50;17.30;99.90
20658;DHT22;10488;50.846;4.078;2023-04-29T15:01:16;17.30;99.90
20658;DHT22;10488;50.846;4.078;2023-04-29T15:03:41;17.40;99.90
20658;DHT22;10488;50.846;4.078;2023-04-29T15:06:07;17.50;99.90
20658;DHT22;10488;50.846;4.078;2023-04-29T15:08:33;17.30;99.90
20658;DHT22;10488;50.846;4.078;2023-04-29T15:10:58;17.40;99.90
20658;DHT22;10488;50.846;4.078;2023-04-29T15:13:24;17.20;99.90
20658;DHT22;10488;50.846;4.078;2023-04-29T15:15:49;17.20;99.90
20658;DHT22;10488;50.846;4.078;2023-04-29T15:18:16;17.40;99.90
20658;DHT22;10488;50.846;4.078;2023-04-29T15:20:42;17.10;99.90
20658;DHT22;10488;50.846;4.078;2023-04-29T15:23:07;16.60;99.90
20658;DHT22;10488;50.846;4.078;2023-04-29T15:25:33;16.80;99.90
20658;DHT22;10488;50.846;4.078;2023-04-29T15:28:00;17.20;99.90
20658;DHT22;10488;50.846;4.078;2023-04-29T15:30:26;17.10;99.90
20658;DHT22;10488;50.846;4.078;2023-04-29T15:32:53;16.90;99.90
20658;DHT22;10488;50.846;4.078;2023-04-29T15:35:19;17.10;99.90
20658;DHT22;10488;50.846;4.078;2023-04-29T15:37:45;17.00;99.90
20658;DHT22;10488;50.846;4.078;2023-04-29T15:40:11;16.60;99.90
20658;DHT22;10488;50.846;4.078;2023-04-29T15:42:36;17.10;99.90
20658;DHT22;10488;50.846;4.078;2023-04-29T15:45:03;16.80;99.90
20658;DHT22;10488;50.846;4.078;2023-04-29T15:47:29;17.00;99.90
20658;DHT22;10488;50.846;4.078;2023-04-29T15:49:54;17.00;99.90
20658;DHT22;10488;50.846;4.078;2023-04-29T15:52:21;16.60;99.90
20658;DHT22;10488;50.846;4.078;2023-04-29T15:54:47;16.60;99.90
20658;DHT22;10488;50.846;4.078;2023-04-29T15:57:13;16.60;99.90
20658;DHT22;10488;50.846;4.078;2023-04-29T15:59:39;16.90;99.90
20658;DHT22;10488;50.846;4.078;2023-04-29T16:02:04;16.90;99.90
20658;DHT22;10488;50.846;4.078;2023-04-29T16:04:35;16.70;99.90
20658;DHT22;10488;50.846;4.078;2023-04-29T16:07:01;17.00;99.90